sensor_id;sensor_type;location;lat;lon;timestamp;temperature;humidity
21744;DHT22;11034;48.556;9.342;2023-09-19T00:01:52;15.20;99.90
21744;DHT22;11034;48.556;9.342;2023-09-19T00:04:24;15.20;99.90
21744;DHT22;11034;48.556;9.342;2023-09-19T00:06:55;15.20;99.90
21744;DHT22;11034;48.556;9.342;2023-09-19T00:09:24;15.20;99.90
21744;DHT22;11034;48.556;9.342;2023-09-19T00:11:54;15.20;99.90
21744;DHT22;11034;48.556;9.342;2023-09-19T00:14:26;15.20;99.90
21744;DHT22;11034;48.556;9.342;2023-09-19T00:16:54;15.30;99.90
21744;DHT22;11034;48.556;9.342;2023-09-19T00:19:32;15.30;99.90
21744;DHT22;11034;48.556;9.342;2023-09-19T00:22:01;15.30;99.90
21744;DHT22;11034;48.556;9.342;2023-09-19T00:24:30;15.40;99.90
21744;DHT22;11034;48.556;9.342;2023-09-19T00:27:10;15.50;99.90
21744;DHT22;11034;48.556;9.342;2023-09-19T00:33:14;15.50;99.90
21744;DHT22;11034;48.556;9.342;2023-09-19T00:36:06;15.60;99.90
21744;DHT22;11034;48.556;9.342;2023-09-19T00:39:08;15.60;99.90
21744;DHT22;11034;48.556;9.342;2023-09-19T00:42:19;15.60;99.90
21744;DHT22;11034;48.556;9.342;2023-09-19T00:50:15;15.60;99.90
21744;DHT22;11034;48.556;9.342;2023-09-19T00:52:44;15.60;99.90
21744;DHT22;11034;48.556;9.342;2023-09-19T00:56:20;15.60;99.90
21744;DHT22;11034;48.556;9.342;2023-09-19T01:09:53;15.50;99.90
21744;DHT22;11034;48.556;9.342;2023-09-19T01:13:13;15.50;99.90
21744;DHT22;11034;48.556;9.342;2023-09-19T01:16:13;15.50;99.90
21744;DHT22;11034;48.556;9.342;2023-09-19T01:23:08;15.60;99.90
21744;DHT22;11034;48.556;9.342;2023-09-19T01:29:42;15.60;99.90
21744;DHT22;11034;48.556;9.342;2023-09-19T01:43:42;15.60;99.90
21744;DHT22;11034;48.556;9.342;2023-09-19T01:46:25;15.60;99.90
21744;DHT22;11034;48.556;9.342;2023-09-19T01:49:15;15.60;99.90
21744;DHT22;11034;48.556;9.342;2023-09-19T01:52:15;15.60;99.90
21744;DHT22;11034;48.556;9.342;2023-09-19T01:55:12;15.70;99.90
21744;DHT22;11034;48.556;9.342;2023-09-19T01:58:08;15.80;99.90
21744;DHT22;11034;48.556;9.342;2023-09-19T02:01:01;15.80;99.90
21744;DHT22;11034;48.556;9.342;2023-09-19T02:06:45;15.80;99.90
21744;DHT22;11034;48.556;9.342;2023-09-19T02:09:17;15.80;99.90
21744;DHT22;11034;48.556;9.342;2023-09-19T02:12:05;15.80;99.90
21744;DHT22;11034;48.556;9.342;2023-09-19T02:14:34;15.80;99.90
21744;DHT22;11034;48.556;9.342;2023-09-19T02:17:04;15.80;99.90
21744;DHT22;11034;48.556;9.342;2023-09-19T02:19:34;15.80;99.90
21744;DHT22;11034;48.556;9.342;2023-09-19T02:22:08;15.70;99.90
21744;DHT22;11034;48.556;9.342;2023-09-19T02:24:39;15.70;99.90
21744;DHT22;11034;48.556;9.342;2023-09-19T02:27:08;15.60;99.90
21744;DHT22;11034;48.556;9.342;2023-09-19T02:29:42;15.60;99.90
21744;DHT22;11034;48.556;9.342;2023-09-19T02:32:10;15.60;99.90
21744;DHT22;11034;48.556;9.342;2023-09-19T02:34:40;15.50;99.90
21744;DHT22;11034;48.556;9.342;2023-09-19T02:37:09;15.50;99.90
21744;DHT22;11034;48.556;9.342;2023-09-19T02:39:40;15.40;99.90
21744;DHT22;11034;48.556;9.342;2023-09-19T02:42:11;15.30;99.90
21744;DHT22;11034;48.556;9.342;2023-09-19T02:44:39;15.30;99.90
21744;DHT22;11034;48.556;9.342;2023-09-19T02:47:07;15.20;99.90
21744;DHT22;11034;48.556;9.342;2023-09-19T02:49:43;15.20;99.90
21744;DHT22;11034;48.556;9.342;2023-09-19T02:52:11;15.10;99.90
21744;DHT22;11034;48.556;9.342;2023-09-19T02:54:48;15.10;99.90
21744;DHT22;11034;48.556;9.342;2023-09-19T02:57:40;15.10;99.90
21744;DHT22;11034;48.556;9.342;2023-09-19T03:00:12;15.20;99.90
21744;DHT22;11034;48.556;9.342;2023-09-19T03:02:43;15.20;99.90
21744;DHT22;11034;48.556;9.342;2023-09-19T03:05:14;15.10;99.90
21744;DHT22;11034;48.556;9.342;2023-09-19T03:07:46;15.10;99.90
21744;DHT22;11034;48.556;9.342;2023-09-19T03:10:18;15.20;99.90
21744;DHT22;11034;48.556;9.342;2023-09-19T03:12:53;15.20;99.90
21744;DHT22;11034;48.556;9.342;2023-09-19T03:15:21;15.30;99.90
21744;DHT22;11034;48.556;9.342;2023-09-19T03:17:54;15.30;99.90
21744;DHT22;11034;48.556;9.342;2023-09-19T03:20:24;15.40;99.90
21744;DHT22;11034;48.556;9.342;2023-09-19T03:22:55;15.40;99.90
21744;DHT22;11034;48.556;9.342;2023-09-19T03:25:39;15.50;99.90
21744;DHT22;11034;48.556;9.342;2023-09-19T03:28:12;15.50;99.90
21744;DHT22;11034;48.556;9.342;2023-09-19T03:30:44;15.60;99.90
21744;DHT22;11034;48.556;9.342;2023-09-19T03:33:34;15.60;99.90
21744;DHT22;11034;48.556;9.342;2023-09-19T03:36:05;15.60;99.90
21744;DHT22;11034;48.556;9.342;2023-09-19T03:38:34;15.70;99.90
21744;DHT22;11034;48.556;9.342;2023-09-19T03:41:03;15.70;99.90
21744;DHT22;11034;48.556;9.342;2023-09-19T03:43:33;15.70;99.90
21744;DHT22;11034;48.556;9.342;2023-09-19T03:46:02;15.70;99.90
21744;DHT22;11034;48.556;9.342;2023-09-19T03:48:32;15.70;99.90
21744;DHT22;11034;48.556;9.342;2023-09-19T03:51:02;15.70;99.90
21744;DHT22;11034;48.556;9.342;2023-09-19T03:53:38;15.70;99.90
21744;DHT22;11034;48.556;9.342;2023-09-19T03:56:09;15.70;99.90
21744;DHT22;11034;48.556;9.342;2023-09-19T03:58:38;15.70;99.90
21744;DHT22;11034;48.556;9.342;2023-09-19T04:01:07;15.70;99.90
21744;DHT22;11034;48.556;9.342;2023-09-19T04:03:35;15.70;99.90
21744;DHT22;11034;48.556;9.342;2023-09-19T04:06:16;15.60;99.90
21744;DHT22;11034;48.556;9.342;2023-09-19T04:08:58;15.60;99.90
21744;DHT22;11034;48.556;9.342;2023-09-19T04:15:13;15.30;99.90
21744;DHT22;11034;48.556;9.342;2023-09-19T04:17:43;15.30;99.90
21744;DHT22;11034;48.556;9.342;2023-09-19T04:20:11;15.20;99.90
21744;DHT22;11034;48.556;9.342;2023-09-19T04:22:40;15.00;99.90
21744;DHT22;11034;48.556;9.342;2023-09-19T04:25:08;14.90;99.90
21744;DHT22;11034;48.556;9.342;2023-09-19T04:27:37;14.90;99.90
21744;DHT22;11034;48.556;9.342;2023-09-19T04:30:06;14.80;99.90
21744;DHT22;11034;48.556;9.342;2023-09-19T04:32:38;14.90;99.90
21744;DHT22;11034;48.556;9.342;2023-09-19T04:35:08;14.80;99.90
21744;DHT22;11034;48.556;9.342;2023-09-19T04:37:38;14.70;99.90
21744;DHT22;11034;48.556;9.342;2023-09-19T04:40:08;14.70;99.90
21744;DHT22;11034;48.556;9.342;2023-09-19T04:42:45;14.60;99.90
21744;DHT22;11034;48.556;9.342;2023-09-19T04:45:14;14.60;99.90
21744;DHT22;11034;48.556;9.342;2023-09-19T04:47:43;14.60;99.90
21744;DHT22;11034;48.556;9.342;2023-09-19T04:50:13;14.70;99.90
21744;DHT22;11034;48.556;9.342;2023-09-19T04:52:41;14.60;99.90
21744;DHT22;11034;48.556;9.342;2023-09-19T04:55:14;14.60;99.90
21744;DHT22;11034;48.556;9.342;2023-09-19T04:57:53;14.60;99.90
21744;DHT22;11034;48.556;9.342;2023-09-19T05:00:55;14.50;99.90
21744;DHT22;11034;48.556;9.342;2023-09-19T05:03:43;14.60;99.90
21744;DHT22;11034;48.556;9.342;2023-09-19T05:06:13;14.60;99.90
21744;DHT22;11034;48.556;9.342;2023-09-19T05:08:45;14.60;99.90
21744;DHT22;11034;48.556;9.342;2023-09-19T05:11:18;14.70;99.90
21744;DHT22;11034;48.556;9.342;2023-09-19T05:13:46;14.70;99.90
21744;DHT22;11034;48.556;9.342;2023-09-19T05:16:16;14.80;99.90
21744;DHT22;11034;48.556;9.342;2023-09-19T05:18:46;14.90;99.90
21744;DHT22;11034;48.556;9.342;2023-09-19T05:21:14;15.00;99.90
21744;DHT22;11034;48.556;9.342;2023-09-19T05:23:42;15.10;99.90
21744;DHT22;11034;48.556;9.342;2023-09-19T05:26:10;15.20;99.90
21744;DHT22;11034;48.556;9.342;2023-09-19T05:28:39;15.30;99.90
21744;DHT22;11034;48.556;9.342;2023-09-19T05:31:07;15.40;99.90
21744;DHT22;11034;48.556;9.342;2023-09-19T05:33:48;15.50;99.90
21744;DHT22;11034;48.556;9.342;2023-09-19T05:36:27;15.50;99.90
21744;DHT22;11034;48.556;9.342;2023-09-19T05:39:00;15.50;99.90
21744;DHT22;11034;48.556;9.342;2023-09-19T05:41:44;15.60;99.90
21744;DHT22;11034;48.556;9.342;2023-09-19T05:44:31;15.60;99.90
21744;DHT22;11034;48.556;9.342;2023-09-19T05:47:00;15.70;99.90
21744;DHT22;11034;48.556;9.342;2023-09-19T05:49:41;15.80;99.90
21744;DHT22;11034;48.556;9.342;2023-09-19T05:52:11;15.90;99.90
21744;DHT22;11034;48.556;9.342;2023-09-19T05:54:39;16.00;99.90
21744;DHT22;11034;48.556;9.342;2023-09-19T05:57:16;16.00;99.90
21744;DHT22;11034;48.556;9.342;2023-09-19T05:59:51;16.10;99.90
21744;DHT22;11034;48.556;9.342;2023-09-19T06:02:19;16.10;99.90
21744;DHT22;11034;48.556;9.342;2023-09-19T06:04:49;16.10;99.90
21744;DHT22;11034;48.556;9.342;2023-09-19T06:07:24;16.10;99.90
21744;DHT22;11034;48.556;9.342;2023-09-19T06:10:08;16.10;99.90
21744;DHT22;11034;48.556;9.342;2023-09-19T06:12:46;16.10;99.90
21744;DHT22;11034;48.556;9.342;2023-09-19T06:15:18;16.00;99.90
21744;DHT22;11034;48.556;9.342;2023-09-19T06:17:50;15.90;99.90
21744;DHT22;11034;48.556;9.342;2023-09-19T06:20:26;15.90;99.90
21744;DHT22;11034;48.556;9.342;2023-09-19T06:22:57;16.00;99.90
21744;DHT22;11034;48.556;9.342;2023-09-19T06:25:25;16.00;99.90
21744;DHT22;11034;48.556;9.342;2023-09-19T06:27:54;16.10;99.90
21744;DHT22;11034;48.556;9.342;2023-09-19T06:30:24;16.10;99.90
21744;DHT22;11034;48.556;9.342;2023-09-19T06:32:56;16.00;99.90
21744;DHT22;11034;48.556;9.342;2023-09-19T06:35:27;15.90;99.90
21744;DHT22;11034;48.556;9.342;2023-09-19T06:37:56;15.80;99.90
21744;DHT22;11034;48.556;9.342;2023-09-19T06:40:25;15.70;99.90
21744;DHT22;11034;48.556;9.342;2023-09-19T06:42:55;15.70;99.90
21744;DHT22;11034;48.556;9.342;2023-09-19T06:45:23;15.70;99.90
21744;DHT22;11034;48.556;9.342;2023-09-19T06:47:54;15.70;99.90
21744;DHT22;11034;48.556;9.342;2023-09-19T06:50:26;15.80;99.90
21744;DHT22;11034;48.556;9.342;2023-09-19T06:52:55;15.80;99.90
21744;DHT22;11034;48.556;9.342;2023-09-19T06:55:26;15.90;99.90
21744;DHT22;11034;48.556;9.342;2023-09-19T06:57:59;16.00;99.90
21744;DHT22;11034;48.556;9.342;2023-09-19T07:00:27;16.10;99.90
21744;DHT22;11034;48.556;9.342;2023-09-19T07:02:59;16.10;99.90
21744;DHT22;11034;48.556;9.342;2023-09-19T07:05:39;16.30;99.90
21744;DHT22;11034;48.556;9.342;2023-09-19T07:08:09;16.30;99.90
21744;DHT22;11034;48.556;9.342;2023-09-19T07:10:40;16.30;99.90
21744;DHT22;11034;48.556;9.342;2023-09-19T07:13:09;16.50;99.90
21744;DHT22;11034;48.556;9.342;2023-09-19T07:15:38;17.30;99.90
21744;DHT22;11034;48.556;9.342;2023-09-19T07:18:14;17.30;99.90
21744;DHT22;11034;48.556;9.342;2023-09-19T07:20:45;17.40;99.90
21744;DHT22;11034;48.556;9.342;2023-09-19T07:23:17;17.10;99.90
21744;DHT22;11034;48.556;9.342;2023-09-19T07:25:46;17.10;99.90
21744;DHT22;11034;48.556;9.342;2023-09-19T07:28:16;17.10;99.90
21744;DHT22;11034;48.556;9.342;2023-09-19T07:30:46;17.20;99.90
21744;DHT22;11034;48.556;9.342;2023-09-19T07:33:14;17.40;99.90
21744;DHT22;11034;48.556;9.342;2023-09-19T07:35:47;17.80;99.90
21744;DHT22;11034;48.556;9.342;2023-09-19T07:38:16;18.10;99.90
21744;DHT22;11034;48.556;9.342;2023-09-19T07:40:44;18.40;99.90
21744;DHT22;11034;48.556;9.342;2023-09-19T07:43:14;18.30;99.90
21744;DHT22;11034;48.556;9.342;2023-09-19T07:45:42;18.50;99.90
21744;DHT22;11034;48.556;9.342;2023-09-19T07:48:12;18.50;99.90
21744;DHT22;11034;48.556;9.342;2023-09-19T07:50:42;18.40;99.90
21744;DHT22;11034;48.556;9.342;2023-09-19T07:53:13;18.40;99.90
21744;DHT22;11034;48.556;9.342;2023-09-19T07:55:45;18.50;99.90
21744;DHT22;11034;48.556;9.342;2023-09-19T07:58:15;18.40;99.90
21744;DHT22;11034;48.556;9.342;2023-09-19T08:00:44;18.40;99.90
21744;DHT22;11034;48.556;9.342;2023-09-19T08:03:13;18.40;99.90
21744;DHT22;11034;48.556;9.342;2023-09-19T08:05:44;18.40;99.90
21744;DHT22;11034;48.556;9.342;2023-09-19T08:08:14;18.50;99.90
21744;DHT22;11034;48.556;9.342;2023-09-19T08:10:43;18.60;99.90
21744;DHT22;11034;48.556;9.342;2023-09-19T08:13:13;18.80;99.90
21744;DHT22;11034;48.556;9.342;2023-09-19T08:15:43;18.80;99.90
21744;DHT22;11034;48.556;9.342;2023-09-19T08:18:13;18.90;99.90
21744;DHT22;11034;48.556;9.342;2023-09-19T08:20:43;19.00;99.90
21744;DHT22;11034;48.556;9.342;2023-09-19T08:23:14;19.00;99.90
21744;DHT22;11034;48.556;9.342;2023-09-19T08:25:44;19.00;99.90
21744;DHT22;11034;48.556;9.342;2023-09-19T08:28:12;19.00;99.90
21744;DHT22;11034;48.556;9.342;2023-09-19T08:30:45;19.20;99.90
21744;DHT22;11034;48.556;9.342;2023-09-19T08:33:15;19.40;99.90
21744;DHT22;11034;48.556;9.342;2023-09-19T08:35:49;19.10;99.90
21744;DHT22;11034;48.556;9.342;2023-09-19T08:38:36;18.90;99.90
21744;DHT22;11034;48.556;9.342;2023-09-19T08:41:06;18.70;99.90
21744;DHT22;11034;48.556;9.342;2023-09-19T08:43:35;18.40;99.90
21744;DHT22;11034;48.556;9.342;2023-09-19T08:46:10;18.50;99.90
21744;DHT22;11034;48.556;9.342;2023-09-19T08:48:46;18.70;99.90
21744;DHT22;11034;48.556;9.342;2023-09-19T08:51:26;18.90;99.90
21744;DHT22;11034;48.556;9.342;2023-09-19T08:54:03;18.70;99.90
21744;DHT22;11034;48.556;9.342;2023-09-19T08:56:34;18.50;99.90
21744;DHT22;11034;48.556;9.342;2023-09-19T08:59:03;18.60;99.90
21744;DHT22;11034;48.556;9.342;2023-09-19T09:01:38;18.70;99.90
21744;DHT22;11034;48.556;9.342;2023-09-19T09:04:11;18.70;99.90
21744;DHT22;11034;48.556;9.342;2023-09-19T09:06:44;18.70;99.90
21744;DHT22;11034;48.556;9.342;2023-09-19T09:09:18;18.70;99.90
21744;DHT22;11034;48.556;9.342;2023-09-19T09:11:54;18.90;99.90
21744;DHT22;11034;48.556;9.342;2023-09-19T09:14:25;18.90;99.90
21744;DHT22;11034;48.556;9.342;2023-09-19T09:17:00;18.90;99.90
21744;DHT22;11034;48.556;9.342;2023-09-19T09:19:33;18.90;99.90
21744;DHT22;11034;48.556;9.342;2023-09-19T09:22:15;19.10;99.90
21744;DHT22;11034;48.556;9.342;2023-09-19T09:25:04;19.20;99.90
21744;DHT22;11034;48.556;9.342;2023-09-19T09:27:42;19.30;99.90
21744;DHT22;11034;48.556;9.342;2023-09-19T09:30:44;19.50;99.90
21744;DHT22;11034;48.556;9.342;2023-09-19T09:33:24;19.60;99.90
21744;DHT22;11034;48.556;9.342;2023-09-19T09:36:02;19.50;99.90
21744;DHT22;11034;48.556;9.342;2023-09-19T09:38:50;19.70;99.90
21744;DHT22;11034;48.556;9.342;2023-09-19T09:41:36;19.80;99.90
21744;DHT22;11034;48.556;9.342;2023-09-19T09:44:12;20.00;99.90
21744;DHT22;11034;48.556;9.342;2023-09-19T09:46:43;19.50;99.90
21744;DHT22;11034;48.556;9.342;2023-09-19T09:49:31;19.60;99.90
21744;DHT22;11034;48.556;9.342;2023-09-19T09:52:05;19.50;99.90
21744;DHT22;11034;48.556;9.342;2023-09-19T09:54:38;19.60;99.90
21744;DHT22;11034;48.556;9.342;2023-09-19T09:57:11;19.60;99.90
21744;DHT22;11034;48.556;9.342;2023-09-19T09:59:53;19.60;99.90
21744;DHT22;11034;48.556;9.342;2023-09-19T10:02:29;19.60;99.90
21744;DHT22;11034;48.556;9.342;2023-09-19T10:05:28;19.70;99.90
21744;DHT22;11034;48.556;9.342;2023-09-19T10:08:19;19.70;99.90
21744;DHT22;11034;48.556;9.342;2023-09-19T10:11:29;20.00;99.90
21744;DHT22;11034;48.556;9.342;2023-09-19T10:15:48;19.70;99.90
21744;DHT22;11034;48.556;9.342;2023-09-19T10:17:20;19.80;99.90
21744;DHT22;11034;48.556;9.342;2023-09-19T10:20:29;19.90;99.90
21744;DHT22;11034;48.556;9.342;2023-09-19T10:23:06;19.50;99.90
21744;DHT22;11034;48.556;9.342;2023-09-19T10:25:40;19.50;99.90
21744;DHT22;11034;48.556;9.342;2023-09-19T10:28:11;19.40;99.90
21744;DHT22;11034;48.556;9.342;2023-09-19T10:30:43;19.50;99.90
21744;DHT22;11034;48.556;9.342;2023-09-19T10:33:15;19.60;99.90
21744;DHT22;11034;48.556;9.342;2023-09-19T10:35:46;19.50;99.90
21744;DHT22;11034;48.556;9.342;2023-09-19T10:38:18;19.40;99.90
21744;DHT22;11034;48.556;9.342;2023-09-19T10:40:50;19.30;99.90
21744;DHT22;11034;48.556;9.342;2023-09-19T10:43:20;19.40;99.90
21744;DHT22;11034;48.556;9.342;2023-09-19T10:45:50;19.40;99.90
21744;DHT22;11034;48.556;9.342;2023-09-19T10:48:25;19.40;99.90
21744;DHT22;11034;48.556;9.342;2023-09-19T10:51:01;19.70;99.90
21744;DHT22;11034;48.556;9.342;2023-09-19T10:53:47;19.90;99.90
21744;DHT22;11034;48.556;9.342;2023-09-19T10:56:26;20.10;99.90
21744;DHT22;11034;48.556;9.342;2023-09-19T10:59:06;20.20;99.90
21744;DHT22;11034;48.556;9.342;2023-09-19T11:01:47;20.60;99.90
21744;DHT22;11034;48.556;9.342;2023-09-19T11:08:03;20.60;99.90
21744;DHT22;11034;48.556;9.342;2023-09-19T11:10:48;20.70;99.90
21744;DHT22;11034;48.556;9.342;2023-09-19T11:13:25;20.90;99.90
21744;DHT22;11034;48.556;9.342;2023-09-19T11:16:18;21.00;99.90
21744;DHT22;11034;48.556;9.342;2023-09-19T11:19:08;21.10;99.90
21744;DHT22;11034;48.556;9.342;2023-09-19T11:22:06;20.70;99.90
21744;DHT22;11034;48.556;9.342;2023-09-19T11:24:52;20.80;99.90
21744;DHT22;11034;48.556;9.342;2023-09-19T11:30:51;21.10;99.90
21744;DHT22;11034;48.556;9.342;2023-09-19T11:33:31;21.40;99.90
21744;DHT22;11034;48.556;9.342;2023-09-19T11:36:17;21.70;99.90
21744;DHT22;11034;48.556;9.342;2023-09-19T11:38:59;21.60;99.90
21744;DHT22;11034;48.556;9.342;2023-09-19T11:41:42;21.40;99.90
21744;DHT22;11034;48.556;9.342;2023-09-19T11:44:38;21.10;99.90
21744;DHT22;11034;48.556;9.342;2023-09-19T11:47:12;20.70;99.90
21744;DHT22;11034;48.556;9.342;2023-09-19T11:49:44;20.40;99.90
21744;DHT22;11034;48.556;9.342;2023-09-19T11:52:25;20.10;99.90
21744;DHT22;11034;48.556;9.342;2023-09-19T11:54:57;20.20;99.90
21744;DHT22;11034;48.556;9.342;2023-09-19T11:57:29;20.10;99.90
21744;DHT22;11034;48.556;9.342;2023-09-19T12:00:17;20.00;99.90
21744;DHT22;11034;48.556;9.342;2023-09-19T12:02:49;19.90;99.90
21744;DHT22;11034;48.556;9.342;2023-09-19T12:05:28;19.80;99.90
21744;DHT22;11034;48.556;9.342;2023-09-19T12:07:59;20.00;99.90
21744;DHT22;11034;48.556;9.342;2023-09-19T12:10:27;20.00;99.90
21744;DHT22;11034;48.556;9.342;2023-09-19T12:13:01;20.00;99.90
21744;DHT22;11034;48.556;9.342;2023-09-19T12:15:33;20.20;99.90
21744;DHT22;11034;48.556;9.342;2023-09-19T12:18:26;20.20;99.90
21744;DHT22;11034;48.556;9.342;2023-09-19T12:20:59;20.10;99.90
21744;DHT22;11034;48.556;9.342;2023-09-19T12:23:46;20.10;99.90
21744;DHT22;11034;48.556;9.342;2023-09-19T12:26:29;20.00;99.90
21744;DHT22;11034;48.556;9.342;2023-09-19T12:29:13;20.10;99.90
21744;DHT22;11034;48.556;9.342;2023-09-19T12:31:58;20.00;99.90
21744;DHT22;11034;48.556;9.342;2023-09-19T12:34:31;20.00;99.90
21744;DHT22;11034;48.556;9.342;2023-09-19T12:37:07;19.90;99.90
21744;DHT22;11034;48.556;9.342;2023-09-19T12:39:45;19.70;99.90
21744;DHT22;11034;48.556;9.342;2023-09-19T12:42:16;19.70;99.90
21744;DHT22;11034;48.556;9.342;2023-09-19T12:44:57;19.70;99.90
21744;DHT22;11034;48.556;9.342;2023-09-19T12:47:28;19.90;99.90
21744;DHT22;11034;48.556;9.342;2023-09-19T12:50:11;20.00;99.90
21744;DHT22;11034;48.556;9.342;2023-09-19T12:52:45;20.10;99.90
21744;DHT22;11034;48.556;9.342;2023-09-19T12:55:30;20.10;99.90
21744;DHT22;11034;48.556;9.342;2023-09-19T12:58:18;20.30;99.90
21744;DHT22;11034;48.556;9.342;2023-09-19T13:00:56;20.60;99.90
21744;DHT22;11034;48.556;9.342;2023-09-19T13:03:27;20.80;99.90
21744;DHT22;11034;48.556;9.342;2023-09-19T13:06:03;21.00;99.90
21744;DHT22;11034;48.556;9.342;2023-09-19T13:08:34;20.90;99.90
21744;DHT22;11034;48.556;9.342;2023-09-19T13:11:17;21.00;99.90
21744;DHT22;11034;48.556;9.342;2023-09-19T13:13:51;21.30;99.90
21744;DHT22;11034;48.556;9.342;2023-09-19T13:16:53;21.40;99.90
21744;DHT22;11034;48.556;9.342;2023-09-19T13:19:39;21.70;99.90
21744;DHT22;11034;48.556;9.342;2023-09-19T13:22:41;21.80;99.90
21744;DHT22;11034;48.556;9.342;2023-09-19T13:25:19;21.60;99.90
21744;DHT22;11034;48.556;9.342;2023-09-19T13:27:51;21.60;99.90
21744;DHT22;11034;48.556;9.342;2023-09-19T13:30:37;21.60;99.90
21744;DHT22;11034;48.556;9.342;2023-09-19T13:33:52;21.50;99.90
21744;DHT22;11034;48.556;9.342;2023-09-19T13:36:34;21.50;99.90
21744;DHT22;11034;48.556;9.342;2023-09-19T13:39:24;21.30;99.90
21744;DHT22;11034;48.556;9.342;2023-09-19T13:42:01;21.20;99.90
21744;DHT22;11034;48.556;9.342;2023-09-19T13:44:33;21.30;99.90
21744;DHT22;11034;48.556;9.342;2023-09-19T13:47:09;21.40;99.90
21744;DHT22;11034;48.556;9.342;2023-09-19T13:49:47;21.40;99.90
21744;DHT22;11034;48.556;9.342;2023-09-19T13:52:38;21.40;99.90
21744;DHT22;11034;48.556;9.342;2023-09-19T13:55:07;21.40;99.90
21744;DHT22;11034;48.556;9.342;2023-09-19T13:57:38;21.20;99.90
21744;DHT22;11034;48.556;9.342;2023-09-19T14:00:15;21.30;99.90
21744;DHT22;11034;48.556;9.342;2023-09-19T14:02:44;21.20;99.90
21744;DHT22;11034;48.556;9.342;2023-09-19T14:05:13;21.20;99.90
21744;DHT22;11034;48.556;9.342;2023-09-19T14:07:43;21.10;99.90
21744;DHT22;11034;48.556;9.342;2023-09-19T14:10:18;21.10;99.90
21744;DHT22;11034;48.556;9.342;2023-09-19T14:12:58;21.00;99.90
21744;DHT22;11034;48.556;9.342;2023-09-19T14:18:50;21.10;99.90
21744;DHT22;11034;48.556;9.342;2023-09-19T14:21:19;21.20;99.90
21744;DHT22;11034;48.556;9.342;2023-09-19T14:23:47;21.00;99.90
21744;DHT22;11034;48.556;9.342;2023-09-19T14:26:16;21.20;99.90
21744;DHT22;11034;48.556;9.342;2023-09-19T14:28:45;21.30;99.90
21744;DHT22;11034;48.556;9.342;2023-09-19T14:31:13;21.20;99.90
21744;DHT22;11034;48.556;9.342;2023-09-19T14:33:44;21.30;99.90
21744;DHT22;11034;48.556;9.342;2023-09-19T14:36:17;21.50;99.90
21744;DHT22;11034;48.556;9.342;2023-09-19T14:38:46;21.30;99.90
21744;DHT22;11034;48.556;9.342;2023-09-19T14:41:14;21.20;99.90
21744;DHT22;11034;48.556;9.342;2023-09-19T14:43:42;21.30;99.90
21744;DHT22;11034;48.556;9.342;2023-09-19T14:46:14;21.30;99.90
21744;DHT22;11034;48.556;9.342;2023-09-19T14:48:43;21.40;99.90
21744;DHT22;11034;48.556;9.342;2023-09-19T14:51:18;21.40;99.90
21744;DHT22;11034;48.556;9.342;2023-09-19T14:53:51;21.60;99.90
21744;DHT22;11034;48.556;9.342;2023-09-19T14:56:19;21.50;99.90
21744;DHT22;11034;48.556;9.342;2023-09-19T14:58:56;21.50;99.90
21744;DHT22;11034;48.556;9.342;2023-09-19T15:01:30;21.40;99.90
21744;DHT22;11034;48.556;9.342;2023-09-19T15:03:59;21.40;99.90
21744;DHT22;11034;48.556;9.342;2023-09-19T15:06:30;21.20;99.90
21744;DHT22;11034;48.556;9.342;2023-09-19T15:08:58;21.30;99.90
21744;DHT22;11034;48.556;9.342;2023-09-19T15:11:27;21.30;99.90
21744;DHT22;11034;48.556;9.342;2023-09-19T15:13:55;21.30;99.90
21744;DHT22;11034;48.556;9.342;2023-09-19T15:16:32;21.20;99.90
21744;DHT22;11034;48.556;9.342;2023-09-19T15:19:43;21.10;99.90
21744;DHT22;11034;48.556;9.342;2023-09-19T15:22:12;21.10;99.90
21744;DHT22;11034;48.556;9.342;2023-09-19T15:24:44;21.10;99.90
21744;DHT22;11034;48.556;9.342;2023-09-19T15:27:15;21.00;99.90
21744;DHT22;11034;48.556;9.342;2023-09-19T15:30:00;20.90;99.90
21744;DHT22;11034;48.556;9.342;2023-09-19T15:32:45;20.90;99.90
21744;DHT22;11034;48.556;9.342;2023-09-19T15:35:42;20.90;99.90
21744;DHT22;11034;48.556;9.342;2023-09-19T15:38:16;21.00;99.90
21744;DHT22;11034;48.556;9.342;2023-09-19T15:40:50;20.90;99.90
21744;DHT22;11034;48.556;9.342;2023-09-19T15:43:19;21.00;99.90
21744;DHT22;11034;48.556;9.342;2023-09-19T15:45:49;21.00;99.90
21744;DHT22;11034;48.556;9.342;2023-09-19T15:48:17;21.00;99.90
21744;DHT22;11034;48.556;9.342;2023-09-19T15:50:48;20.90;99.90
21744;DHT22;11034;48.556;9.342;2023-09-19T15:53:17;20.90;99.90
21744;DHT22;11034;48.556;9.342;2023-09-19T15:55:53;20.90;99.90
21744;DHT22;11034;48.556;9.342;2023-09-19T15:58:34;20.80;99.90
21744;DHT22;11034;48.556;9.342;2023-09-19T16:01:11;20.80;99.90
21744;DHT22;11034;48.556;9.342;2023-09-19T16:03:53;20.70;99.90
21744;DHT22;11034;48.556;9.342;2023-09-19T16:06:41;20.60;99.90
21744;DHT22;11034;48.556;9.342;2023-09-19T16:28:49;20.20;99.90
21744;DHT22;11034;48.556;9.342;2023-09-19T16:47:11;19.60;99.90
21744;DHT22;11034;48.556;9.342;2023-09-19T16:50:17;19.50;99.90
21744;DHT22;11034;48.556;9.342;2023-09-19T16:52:48;19.40;99.90
21744;DHT22;11034;48.556;9.342;2023-09-19T16:55:24;19.30;99.90
21744;DHT22;11034;48.556;9.342;2023-09-19T16:58:16;19.10;99.90
21744;DHT22;11034;48.556;9.342;2023-09-19T17:00:50;18.90;99.90
21744;DHT22;11034;48.556;9.342;2023-09-19T17:03:19;18.80;99.90
21744;DHT22;11034;48.556;9.342;2023-09-19T17:05:52;18.70;99.90
21744;DHT22;11034;48.556;9.342;2023-09-19T17:08:25;18.50;99.90
21744;DHT22;11034;48.556;9.342;2023-09-19T17:11:02;18.40;99.90
21744;DHT22;11034;48.556;9.342;2023-09-19T17:13:30;18.20;99.90
21744;DHT22;11034;48.556;9.342;2023-09-19T17:16:01;18.10;99.90
21744;DHT22;11034;48.556;9.342;2023-09-19T17:18:31;18.00;99.90
21744;DHT22;11034;48.556;9.342;2023-09-19T17:21:02;17.90;99.90
21744;DHT22;11034;48.556;9.342;2023-09-19T17:23:32;17.90;99.90
21744;DHT22;11034;48.556;9.342;2023-09-19T17:26:02;17.80;99.90
21744;DHT22;11034;48.556;9.342;2023-09-19T17:28:33;17.70;99.90
21744;DHT22;11034;48.556;9.342;2023-09-19T17:31:09;17.60;99.90
21744;DHT22;11034;48.556;9.342;2023-09-19T17:34:27;17.60;99.90
21744;DHT22;11034;48.556;9.342;2023-09-19T17:37:09;17.50;99.90
21744;DHT22;11034;48.556;9.342;2023-09-19T17:40:20;17.50;99.90
21744;DHT22;11034;48.556;9.342;2023-09-19T17:43:34;17.40;99.90
21744;DHT22;11034;48.556;9.342;2023-09-19T17:46:41;17.30;99.90
21744;DHT22;11034;48.556;9.342;2023-09-19T17:49:11;17.20;99.90
21744;DHT22;11034;48.556;9.342;2023-09-19T17:51:41;17.10;99.90
21744;DHT22;11034;48.556;9.342;2023-09-19T17:54:09;16.90;99.90
21744;DHT22;11034;48.556;9.342;2023-09-19T17:56:41;16.90;99.90
21744;DHT22;11034;48.556;9.342;2023-09-19T17:59:09;16.80;99.90